Last 24 Hour KALB Observations

Last 24 hours of surface weather observations from the Albany County Airport. Observations taken by the National Weather Service.


		
KALB 261051Z 36005KT 6SM -DZ SCT025 BKN039 OVC048 02/M01 A2998 RMK AO2
 RAE15DZB15 SLP154 P0001 T00221006=
KALB 261140Z 01005KT 5SM -DZ OVC029 02/M01 A2998 RMK AO2 P0000 T00221006=
KALB 261140Z 01005KT 5SM -DZ OVC029 02/M01 A2998=
KALB 261151Z 01006KT 5SM -DZ OVC028 02/M01 A2998 RMK AO2 SLP154 P0000 60008
 70010 T00221006 10039 20022 51004=
KALB 261233Z 01006KT 5SM -DZ FEW009 FEW013 OVC021 02/M01 A2999 RMK AO2 P0000
 T00221006=
KALB 261233Z 01006KT 5SM -DZ FEW009 FEW013 OVC021 02/M01 A2999=
KALB 261251Z 02005KT 5SM -DZ FEW009 FEW013 OVC021 02/M01 A3000 RMK AO2 SLP162
 P0000 T00221011=
KALB 261351Z 01006KT 6SM -DZ FEW013 SCT023 OVC032 02/M01 A2999 RMK AO2 SLP156
 PCPN VRY LGT P0000 T00221006=
KALB 261441Z 36006KT 8SM SCT010 BKN023 OVC032 03/M01 A3000 RMK AO2 DZE08 P0000
 T00281006=
KALB 261441Z 36006KT 8SM SCT010 BKN023 OVC032 03/M01 A3000=
KALB 261451Z 35004KT 8SM SCT010 BKN023 OVC032 03/M01 A3000 RMK AO2 DZE08 SLP162
 P0000 60000 T00281011 51008=
KALB 261530Z 02005KT 4SM -RA BKN010 OVC020 03/M01 A3000 RMK AO2 DZB22E29RAB29
 P0000 T00281006=
KALB 261530Z 02005KT 4SM -RA BKN010 OVC020 03/M01 A3000=
KALB 261551Z 36003KT 3SM -RA BR SCT006 BKN010 OVC020 03/M01 A3000 RMK AO2
 DZB22E29RAB29 SLP162 P0001 T00281006=
KALB 261631Z 36006KT 3SM -DZ BR BKN006 OVC020 03/M01 A3000 RMK AO2 RAE13DZB13
 P0000 T00281006=
KALB 261631Z 36006KT 3SM -DZ BR BKN006 OVC020 03/M01 A3000=
KALB 261551Z 36003KT 3SM -RA BR SCT006 BKN010 OVC020 03/M01 A3000 RMK AO2
 DZB22E29RAB29 SLP162 P0001 T00281006=
KALB 261651Z 02005KT 4SM -DZ BR BKN006 OVC010 03/00 A3000 RMK AO2 RAE13DZB13
 SLP160 P0000 T00280000=
KALB 261706Z 02004KT 1 1/4SM -DZ BR SCT006 OVC010 03/00 A2999 RMK AO2 P0000
 T00280000=
KALB 261706Z 02004KT 1 1/4SM -DZ BR SCT006 OVC010 03/00 A2999=
KALB 261746Z 05004KT 1 1/4SM -DZ BR BKN006 OVC010 03/00 A2997 RMK AO2 P0000=
KALB 261746Z 05004KT 1 1/4SM -DZ BR BKN006 OVC010 03/00 A2997=
KALB 261751Z 04004KT 1 1/4SM -DZ BR BKN006 OVC010 03/00 A2996 RMK AO2 SLP149
 P0000 60001 T00280000 10028 20022 56013=
KALB 261851Z 01006KT 2SM BR BKN006 OVC010 03/01 A2994 RMK AO2 DZE43 SLP140
 P0000 T00330006=
KALB 261938Z 36004KT 3SM BR BKN006 OVC010 03/00 A2993 RMK AO2 T00330000=
KALB 261938Z 36004KT 3SM BR BKN006 OVC010 03/00 A2993=
KALB 261951Z 04004KT 5SM BR BKN006 OVC010 03/00 A2992 RMK AO2 SLP132 T00330000=
KALB 262033Z 02003KT 5SM BR FEW006 BKN010 OVC021 03/00 A2991 RMK AO2 BKN V SCT
 T00330000=
KALB 262033Z 02003KT 5SM BR FEW006 BKN010 OVC021 03/00 A2991=
KALB 262044Z 03003KT 6SM BR FEW006 SCT010 OVC021 03/00 A2990 RMK AO2 T00330000=
KALB 262044Z 03003KT 6SM BR FEW006 SCT010 OVC021 03/00 A2990=
KALB 262051Z 05004KT 6SM BR FEW006 SCT010 OVC021 03/00 A2990 RMK AO2 SLP128
 60000 T00330000 56020=
KALB 262151Z 02003KT 6SM BR FEW010 OVC020 03/00 A2990 RMK AO2 SLP129 T00330000=
KALB 262251Z 04005KT 8SM FEW010 OVC024 03/M01 A2989 RMK AO2 SLP125 T00281006=
KALB 262351Z 02004KT 10SM OVC026 03/M01 A2987 RMK AO2 SLP119 60000 T00281011
 10033 20028 58009=
KALB 270035Z 02005KT 10SM OVC030 03/M01 A2984 RMK AO2 T00281011=
KALB 270035Z 02005KT 10SM OVC030 03/M01 A2984=
KALB 270051Z 03004KT 10SM OVC031 03/M01 A2984 RMK AO2 SLP107 T00281011=
KALB 270151Z 04003KT 10SM OVC033 03/M01 A2982 RMK AO2 SLP101 T00281011=
KALB 270251Z 04005KT 10SM OVC036 02/M02 A2978 RMK AO2 SLP087 T00221017 58031=
KALB 270351Z 01003KT 10SM FEW036 BKN044 OVC060 02/M02 A2973 RMK AO2 PRESFR
 SLP070 T00221017=
KALB 270351Z COR 01003KT 10SM SCT030 BKN044 OVC060 02/M02 A2973 RMK AO2 PRESFR
 SLP070 T00221017=
KALB 270351Z 01003KT 10SM FEW036 BKN044 OVC060 02/M02 A2973 RMK AO2 PRESFR
 SLP070 T00221017=
KALB 270443Z 36005KT 10SM BKN028 BKN060 OVC080 02/M02 A2969 RMK AO2 PRESFR
 T00221017=
KALB 270443Z 36005KT 10SM BKN028 BKN060 OVC080 02/M02 A2969=
KALB 270451Z 00000KT 10SM BKN028 OVC060 02/M01 A2970 RMK AO2 SLP059 T00221011
 400500022=
KALB 270551Z 00000KT 10SM OVC025 02/M01 A2963 RMK AO2 SLP035 T00221011 10028
 20022 58051=
KALB 270651Z 00000KT 10SM OVC025 02/M01 A2954 RMK AO2 RAB44E49 SLP003 PRESENT
 WX VCSH P0000 T00221006=
KALB 270751Z 36004KT 6SM -RA BKN025 OVC030 03/00 A2946 RMK AO2 RAB04 SLP978
 P0002 T00280000=
KALB 270851Z 32005KT 5SM -RA BR FEW026 OVC050 03/01 A2937 RMK AO2 SLP949 P0010
 60012 T00280006 56054=
KALB 270951Z 01006KT 6SM -RA BR FEW026 BKN031 OVC048 05/03 A2930 RMK AO2 SLP923
 P0011 T00500028=
KALB 271005Z 00000KT 6SM R01/5500VP6000FT -RA BR BKN029 OVC034 05/03 A2928 RMK
 AO2 P0003 T00500028=
KALB 271005Z 00000KT 6SM R01/5500VP6000FT -RA BR BKN029 OVC034 05/03 A2928=
KALB 271051Z 27012KT 6SM -RA BR BKN021 OVC026 04/02 A2926 RMK AO2 SLP909 P0013
 T00440022=